createdAt,value
2019-02-28T00:01:01.391Z,55.60
2019-02-28T00:03:30.590Z,57.60
2019-02-28T00:05:59.703Z,54.80
2019-02-28T00:08:28.846Z,55.20
2019-02-28T00:10:57.697Z,56.40
2019-02-28T00:13:26.700Z,56.40
2019-02-28T00:15:55.916Z,56.80
2019-02-28T00:18:24.968Z,56.20
2019-02-28T00:20:54.195Z,56.20
2019-02-28T00:23:23.205Z,56.90
2019-02-28T00:25:52.205Z,56.80
2019-02-28T00:28:23.118Z,57.30
2019-02-28T00:30:52.010Z,56.50
2019-02-28T00:33:21.067Z,57.30
2019-02-28T00:35:50.200Z,56.10
2019-02-28T00:38:19.455Z,57.10
2019-02-28T00:40:48.675Z,56.20
2019-02-28T00:43:17.861Z,56.50
2019-02-28T00:45:47.187Z,58.00
2019-02-28T00:48:18.300Z,56.30
2019-02-28T00:50:47.084Z,56.80
2019-02-28T00:53:16.235Z,57.40
2019-02-28T00:55:46.205Z,57.40
2019-02-28T00:58:16.085Z,57.00
2019-02-28T01:00:45.035Z,56.60
2019-02-28T01:03:14.150Z,56.50
2019-02-28T01:05:43.679Z,57.20
2019-02-28T01:08:12.784Z,57.30
2019-02-28T01:10:41.916Z,57.70
2019-02-28T01:13:11.495Z,57.60
2019-02-28T01:15:44.435Z,57.90
2019-02-28T01:18:11.684Z,57.40
2019-02-28T01:20:40.783Z,58.20
2019-02-28T01:23:10.011Z,58.30
2019-02-28T01:25:40.261Z,57.70
2019-02-28T01:28:09.763Z,59.20
2019-02-28T01:30:40.612Z,58.60
2019-02-28T01:33:09.529Z,60.30
2019-02-28T01:38:26.398Z,58.30
2019-02-28T01:40:55.631Z,57.60
2019-02-28T01:43:28.403Z,57.60
2019-02-28T01:45:55.520Z,57.50
2019-02-28T01:48:24.537Z,56.80
2019-02-28T01:50:54.138Z,56.60
2019-02-28T01:53:23.230Z,56.60
2019-02-28T01:55:52.342Z,56.60
2019-02-28T01:58:21.387Z,56.90
2019-02-28T02:00:50.417Z,55.90
2019-02-28T02:03:19.628Z,56.00
2019-02-28T02:05:51.748Z,55.50
2019-02-28T02:08:19.372Z,55.60
2019-02-28T02:10:48.419Z,55.00
2019-02-28T02:13:17.408Z,54.80
2019-02-28T02:15:50.822Z,54.60
2019-02-28T02:18:17.265Z,55.00
2019-02-28T02:20:46.520Z,54.20
2019-02-28T02:23:18.080Z,54.00
2019-02-28T02:25:46.480Z,53.90
2019-02-28T02:28:15.622Z,53.80
2019-02-28T02:30:50.541Z,53.80
2019-02-28T02:33:15.643Z,53.60
2019-02-28T02:35:44.836Z,53.30
2019-02-28T02:38:13.859Z,53.50
2019-02-28T02:43:11.669Z,53.30
2019-02-28T02:45:43.295Z,53.00
2019-02-28T02:48:11.629Z,53.20
2019-02-28T02:50:40.840Z,53.00
2019-02-28T02:53:09.961Z,52.90
2019-02-28T02:55:38.979Z,53.10
2019-02-28T02:58:08.108Z,53.60
2019-02-28T03:00:37.174Z,53.00
2019-02-28T03:03:07.809Z,53.10
2019-02-28T03:05:36.996Z,53.00
2019-02-28T03:08:06.401Z,53.10
2019-02-28T03:10:35.492Z,53.40
2019-02-28T03:13:05.990Z,53.10
2019-02-28T03:15:35.007Z,54.00
2019-02-28T03:18:04.056Z,53.50
2019-02-28T03:20:33.040Z,53.70
2019-02-28T03:23:03.360Z,53.50
2019-02-28T03:25:32.475Z,54.40
2019-02-28T03:28:01.679Z,54.00
2019-02-28T03:30:32.943Z,53.60
2019-02-28T03:33:01.314Z,53.80
2019-02-28T03:35:40.436Z,53.90
2019-02-28T03:38:01.220Z,54.30
2019-02-28T03:40:30.381Z,54.10
2019-02-28T03:43:05.534Z,54.20
2019-02-28T03:45:34.302Z,54.40
2019-02-28T03:48:00.710Z,54.70
2019-02-28T03:50:29.934Z,54.50
2019-02-28T03:52:59.006Z,54.60
2019-02-28T03:55:28.033Z,55.30
2019-02-28T03:58:04.273Z,54.50
2019-02-28T04:00:32.829Z,54.70
2019-02-28T04:02:59.197Z,55.30
2019-02-28T04:05:28.496Z,55.00
2019-02-28T04:07:57.643Z,55.60
2019-02-28T04:10:26.681Z,55.20
2019-02-28T04:12:55.907Z,56.00
2019-02-28T04:15:25.030Z,55.60
2019-02-28T04:17:54.300Z,55.40
2019-02-28T04:20:23.428Z,54.90
2019-02-28T04:22:58.863Z,55.80
2019-02-28T04:25:24.377Z,55.70
2019-02-28T04:27:53.974Z,55.20
2019-02-28T04:30:22.971Z,55.30
2019-02-28T04:32:51.914Z,55.50
2019-02-28T04:35:24.015Z,55.40
2019-02-28T04:37:51.749Z,56.30
2019-02-28T04:40:20.873Z,57.30
2019-02-28T04:42:49.928Z,56.60
2019-02-28T04:45:19.004Z,56.00
2019-02-28T04:47:48.149Z,56.70
2019-02-28T04:50:17.013Z,56.90
2019-02-28T04:52:47.945Z,56.50
2019-02-28T04:55:16.432Z,56.50
2019-02-28T04:57:51.612Z,56.80
2019-02-28T05:00:18.623Z,56.60
2019-02-28T05:02:47.554Z,56.50
2019-02-28T05:05:16.544Z,56.30
2019-02-28T05:07:45.448Z,56.80
2019-02-28T05:10:14.633Z,56.60
2019-02-28T05:12:43.741Z,57.10
2019-02-28T05:15:14.224Z,57.80
2019-02-28T05:17:43.339Z,57.30
2019-02-28T05:20:12.460Z,58.20
2019-02-28T05:22:41.420Z,58.20
2019-02-28T05:25:17.800Z,59.20
2019-02-28T05:27:42.172Z,58.50
2019-02-28T05:30:18.082Z,58.70
2019-02-28T05:32:44.528Z,58.70
2019-02-28T05:35:13.435Z,58.30
2019-02-28T05:37:46.843Z,59.20
2019-02-28T05:40:14.425Z,59.30
2019-02-28T05:42:43.374Z,59.00
2019-02-28T05:45:14.743Z,59.40
2019-02-28T05:47:46.840Z,59.00
2019-02-28T05:50:16.812Z,58.80
2019-02-28T05:52:45.104Z,58.70
2019-02-28T05:55:14.127Z,58.80
2019-02-28T05:57:45.079Z,60.10
2019-02-28T06:00:18.466Z,59.70
2019-02-28T06:02:47.536Z,62.70
2019-02-28T06:05:16.428Z,59.60
2019-02-28T06:07:45.392Z,59.80
2019-02-28T06:10:15.158Z,59.70
2019-02-28T06:12:44.967Z,60.40
2019-02-28T06:15:17.366Z,60.00
2019-02-28T06:17:46.300Z,59.90
2019-02-28T06:20:17.900Z,59.30
2019-02-28T06:22:45.869Z,59.10
2019-02-28T06:25:22.546Z,59.20
2019-02-28T06:27:49.531Z,59.10
2019-02-28T06:30:17.535Z,59.10
2019-02-28T06:32:46.435Z,59.00
2019-02-28T06:35:17.779Z,59.10
2019-02-28T06:37:46.217Z,59.80
2019-02-28T06:40:15.971Z,59.70
2019-02-28T06:42:46.785Z,60.50
2019-02-28T06:45:19.827Z,59.40
2019-02-28T06:47:50.115Z,60.10
2019-02-28T06:50:19.198Z,59.30
2019-02-28T06:52:48.160Z,59.30
2019-02-28T06:55:18.760Z,59.50
2019-02-28T06:57:47.692Z,60.90
2019-02-28T07:00:17.171Z,59.80
2019-02-28T07:02:46.252Z,60.40
2019-02-28T07:05:15.376Z,59.70
2019-02-28T07:07:45.916Z,59.60
2019-02-28T07:10:16.211Z,60.50
2019-02-28T07:12:45.348Z,60.00
2019-02-28T07:15:14.556Z,59.50
2019-02-28T07:17:46.272Z,59.30
2019-02-28T07:20:18.992Z,59.50
2019-02-28T07:22:47.883Z,59.60
2019-02-28T07:25:16.933Z,61.30
2019-02-28T07:27:45.860Z,59.40
2019-02-28T07:30:19.471Z,59.60
2019-02-28T07:32:48.703Z,60.20
2019-02-28T07:35:17.827Z,60.20
2019-02-28T07:37:46.944Z,59.70
2019-02-28T07:40:17.394Z,59.90
2019-02-28T07:42:46.812Z,59.50
2019-02-28T07:45:16.187Z,59.40
2019-02-28T07:47:45.178Z,59.00
2019-02-28T07:50:15.304Z,59.20
2019-02-28T07:52:44.255Z,59.50
2019-02-28T07:55:17.903Z,59.50
2019-02-28T07:57:51.144Z,59.20
2019-02-28T08:00:23.673Z,59.30
2019-02-28T08:02:52.617Z,58.90
2019-02-28T08:05:21.643Z,59.20
2019-02-28T08:08:09.990Z,58.70
2019-02-28T08:10:39.020Z,59.00
2019-02-28T08:13:08.012Z,58.50
2019-02-28T08:15:37.005Z,58.60
2019-02-28T08:18:06.053Z,58.30
2019-02-28T08:20:35.061Z,58.20
2019-02-28T08:23:04.231Z,58.30
2019-02-28T08:25:33.684Z,58.10
2019-02-28T08:28:02.888Z,58.00
2019-02-28T08:30:35.915Z,58.60
2019-02-28T08:33:05.047Z,57.80
2019-02-28T08:35:34.908Z,57.60
2019-02-28T08:38:06.681Z,57.30
2019-02-28T08:40:35.531Z,57.90
2019-02-28T08:43:04.596Z,57.20
2019-02-28T08:45:34.519Z,56.90
2019-02-28T08:48:03.570Z,57.40
2019-02-28T08:50:32.692Z,57.10
2019-02-28T08:53:06.189Z,57.00
2019-02-28T08:55:38.396Z,56.30
2019-02-28T08:58:06.779Z,56.00
2019-02-28T09:00:37.612Z,56.60
2019-02-28T09:03:07.542Z,56.70
2019-02-28T09:05:36.697Z,56.70
2019-02-28T09:08:05.971Z,55.60
2019-02-28T09:10:35.125Z,55.50
2019-02-28T09:13:07.766Z,55.00
2019-02-28T09:15:35.097Z,53.80
2019-02-28T09:18:04.268Z,52.20
2019-02-28T09:20:33.258Z,52.20
2019-02-28T09:23:03.262Z,52.10
2019-02-28T09:25:32.448Z,52.00
2019-02-28T09:28:01.913Z,51.10
2019-02-28T09:30:46.490Z,49.50
2019-02-28T09:33:14.769Z,48.20
2019-02-28T09:35:46.259Z,47.70
2019-02-28T09:38:14.696Z,47.20
2019-02-28T09:40:43.754Z,48.10
2019-02-28T09:43:12.912Z,48.20
2019-02-28T09:45:41.804Z,47.80
2019-02-28T09:48:10.875Z,47.10
2019-02-28T09:50:39.832Z,46.60
2019-02-28T09:53:08.938Z,46.20
2019-02-28T09:55:39.813Z,45.90
2019-02-28T09:58:08.659Z,46.10
2019-02-28T10:00:37.929Z,45.40
2019-02-28T10:03:07.026Z,45.50
2019-02-28T10:05:39.041Z,44.60
2019-02-28T10:08:07.166Z,44.00
2019-02-28T10:10:36.084Z,44.00
2019-02-28T10:13:05.273Z,43.50
2019-02-28T10:15:34.658Z,44.10
2019-02-28T10:18:04.266Z,44.60
2019-02-28T10:20:37.168Z,43.70
2019-02-28T10:23:06.932Z,42.20
2019-02-28T10:25:40.971Z,43.90
2019-02-28T10:28:06.975Z,43.00
2019-02-28T10:30:36.037Z,41.70
2019-02-28T10:33:05.217Z,40.80
2019-02-28T10:35:36.771Z,41.50
2019-02-28T10:38:05.190Z,41.60
2019-02-28T10:40:36.295Z,42.20
2019-02-28T10:43:05.609Z,41.40
2019-02-28T10:45:34.776Z,41.30
2019-02-28T10:48:04.168Z,41.10
2019-02-28T10:50:39.129Z,40.70
2019-02-28T10:53:09.309Z,39.90
2019-02-28T10:55:38.701Z,40.60
2019-02-28T10:58:09.110Z,40.90
2019-02-28T11:00:46.285Z,40.30
2019-02-28T11:03:16.181Z,40.00
2019-02-28T11:05:46.707Z,40.90
2019-02-28T11:08:19.142Z,40.90
2019-02-28T11:10:47.897Z,40.60
2019-02-28T11:13:21.307Z,40.70
2019-02-28T11:15:50.754Z,41.40
2019-02-28T11:18:19.910Z,42.00
2019-02-28T11:20:50.821Z,43.10
2019-02-28T11:23:19.927Z,43.30
2019-02-28T11:25:48.896Z,44.00
2019-02-28T11:28:18.274Z,44.50
2019-02-28T11:30:48.278Z,45.90
2019-02-28T11:33:18.523Z,45.50
2019-02-28T11:35:47.653Z,46.40
2019-02-28T11:38:20.368Z,46.00
2019-02-28T11:40:47.300Z,46.40
2019-02-28T11:43:16.481Z,46.20
2019-02-28T11:45:47.237Z,46.10
2019-02-28T11:48:20.232Z,45.50
2019-02-28T11:50:49.561Z,45.70
2019-02-28T11:53:19.260Z,45.20
2019-02-28T11:55:48.477Z,44.80
2019-02-28T11:58:18.107Z,43.40
2019-02-28T12:00:47.518Z,44.20
2019-02-28T12:03:16.509Z,43.30
2019-02-28T12:05:49.865Z,42.90
2019-02-28T12:08:16.311Z,42.30
2019-02-28T12:10:45.527Z,42.90
2019-02-28T12:13:16.425Z,40.90
2019-02-28T12:15:47.190Z,41.40
2019-02-28T12:18:16.181Z,41.90
2019-02-28T12:20:45.233Z,40.80
2019-02-28T12:23:14.293Z,41.10
2019-02-28T12:25:43.631Z,40.90
2019-02-28T12:28:12.887Z,40.60
2019-02-28T12:30:41.934Z,40.60
2019-02-28T12:33:11.065Z,40.60
2019-02-28T12:35:40.714Z,40.20
2019-02-28T12:38:09.956Z,39.10
2019-02-28T12:40:42.497Z,39.30
2019-02-28T12:43:12.872Z,39.50
2019-02-28T12:45:47.119Z,39.70
2019-02-28T12:48:15.542Z,40.20
2019-02-28T12:50:44.664Z,41.00
2019-02-28T12:53:13.822Z,40.80
2019-02-28T12:55:42.955Z,41.60
2019-02-28T12:58:12.109Z,42.00
2019-02-28T13:00:44.067Z,42.30
2019-02-28T13:03:19.333Z,42.70
2019-02-28T13:05:48.049Z,43.00
2019-02-28T13:08:14.336Z,43.70
2019-02-28T13:10:43.699Z,43.70
2019-02-28T13:13:12.665Z,43.50
2019-02-28T13:15:45.472Z,43.00
2019-02-28T13:18:13.167Z,43.40
2019-02-28T13:20:42.003Z,43.50
2019-02-28T13:23:11.047Z,43.10
2019-02-28T13:25:40.267Z,43.00
2019-02-28T13:28:09.520Z,43.00
2019-02-28T13:30:40.845Z,43.00
2019-02-28T13:33:15.017Z,42.30
2019-02-28T13:35:47.145Z,42.60
2019-02-28T13:38:17.684Z,42.90
2019-02-28T13:40:45.858Z,43.40
2019-02-28T13:43:20.621Z,43.90
2019-02-28T13:45:45.818Z,44.50
2019-02-28T13:48:25.367Z,44.50
2019-02-28T13:50:46.225Z,44.30
2019-02-28T13:53:17.789Z,44.70
2019-02-28T13:55:46.569Z,44.30
2019-02-28T13:58:17.590Z,45.10
2019-02-28T14:00:46.830Z,45.20
2019-02-28T14:03:17.109Z,46.60
2019-02-28T14:05:46.718Z,47.00
2019-02-28T14:08:16.188Z,48.10
2019-02-28T14:10:45.884Z,48.50
2019-02-28T14:13:15.310Z,50.20
2019-02-28T14:15:52.362Z,50.70
2019-02-28T14:18:20.841Z,50.20
2019-02-28T14:20:50.016Z,51.30
2019-02-28T14:23:20.636Z,51.60
2019-02-28T14:25:50.352Z,52.10
2019-02-28T14:28:19.522Z,52.30
2019-02-28T14:30:48.672Z,53.20
2019-02-28T14:33:19.441Z,53.90
2019-02-28T14:35:48.493Z,53.90
2019-02-28T14:38:36.952Z,55.00
2019-02-28T14:41:06.219Z,55.30
2019-02-28T14:43:35.304Z,55.80
2019-02-28T14:46:04.526Z,55.90
2019-02-28T14:48:36.609Z,56.30
2019-02-28T14:51:04.057Z,56.80
2019-02-28T14:53:33.096Z,57.80
2019-02-28T14:56:04.388Z,57.40
2019-02-28T14:58:33.137Z,56.90
2019-02-28T15:01:02.214Z,57.40
2019-02-28T15:03:31.229Z,57.60
2019-02-28T15:06:00.504Z,57.30
2019-02-28T15:08:29.759Z,57.30
2019-02-28T15:10:58.789Z,57.30
2019-02-28T15:13:30.416Z,57.00
2019-02-28T15:15:58.540Z,57.70
2019-02-28T15:18:27.732Z,57.10
2019-02-28T15:20:56.575Z,56.60
2019-02-28T15:23:25.635Z,57.40
2019-02-28T15:25:54.986Z,56.90
2019-02-28T15:28:23.993Z,56.80
2019-02-28T15:30:53.035Z,56.90
2019-02-28T15:33:22.143Z,56.30
2019-02-28T15:35:51.220Z,57.20
2019-02-28T15:38:20.444Z,56.50
2019-02-28T15:40:49.669Z,56.60
2019-02-28T15:43:18.776Z,56.10
2019-02-28T15:45:48.080Z,56.60
2019-02-28T15:48:17.104Z,56.30
2019-02-28T15:50:51.415Z,55.60
2019-02-28T15:53:16.907Z,56.10
2019-02-28T15:55:45.940Z,55.60
2019-02-28T15:58:16.587Z,55.50
2019-02-28T16:00:45.403Z,55.40
2019-02-28T16:03:16.807Z,56.30
2019-02-28T16:05:45.102Z,55.50
2019-02-28T16:08:13.996Z,55.60
2019-02-28T16:10:52.965Z,55.90
2019-02-28T16:13:13.780Z,55.70
2019-02-28T16:15:43.229Z,55.70
2019-02-28T16:18:13.519Z,55.80
2019-02-28T16:20:42.587Z,55.80
2019-02-28T16:23:11.637Z,56.10
2019-02-28T16:25:40.940Z,55.90
2019-02-28T16:28:09.974Z,55.60
2019-02-28T16:30:39.846Z,56.70
2019-02-28T16:33:09.776Z,56.10
2019-02-28T16:35:38.785Z,56.00
2019-02-28T16:38:09.897Z,56.30
2019-02-28T16:40:38.627Z,56.40
2019-02-28T16:43:07.741Z,56.20
2019-02-28T16:45:40.871Z,56.50
2019-02-28T16:48:09.073Z,56.90
2019-02-28T16:50:37.977Z,56.70
2019-02-28T16:53:07.085Z,57.30
2019-02-28T16:55:35.923Z,57.00
2019-02-28T16:58:05.459Z,57.10
2019-02-28T17:00:34.383Z,56.40
2019-02-28T17:03:04.095Z,56.80
2019-02-28T17:05:34.114Z,56.00
2019-02-28T17:08:03.367Z,57.00
2019-02-28T17:10:35.944Z,57.20
2019-02-28T17:13:06.939Z,56.40
2019-02-28T17:15:46.358Z,56.20
2019-02-28T17:18:21.406Z,56.30
2019-02-28T17:20:50.644Z,56.30
2019-02-28T17:23:19.649Z,56.00
2019-02-28T17:25:48.824Z,56.50
2019-02-28T17:28:19.468Z,56.50
2019-02-28T17:31:08.417Z,56.30
2019-02-28T17:33:36.864Z,56.40
2019-02-28T17:36:08.390Z,55.90
2019-02-28T17:38:38.007Z,55.90
2019-02-28T17:41:07.225Z,56.00
2019-02-28T17:43:38.424Z,56.80
2019-02-28T17:46:10.540Z,56.20
2019-02-28T17:49:11.401Z,56.20
2019-02-28T17:51:46.072Z,56.20
2019-02-28T17:54:30.125Z,56.40
2019-02-28T17:57:02.241Z,56.90
2019-02-28T17:59:42.019Z,57.00
2019-02-28T18:02:49.087Z,56.60
2019-02-28T18:05:30.109Z,56.60
2019-02-28T18:08:14.135Z,57.10
2019-02-28T18:11:14.947Z,57.20
2019-02-28T18:16:42.936Z,57.60
2019-02-28T18:19:30.518Z,58.00
2019-02-28T18:22:09.263Z,57.90
2019-02-28T18:25:17.214Z,58.70
2019-02-28T18:27:50.607Z,59.00
2019-02-28T18:30:46.357Z,58.00
2019-02-28T18:33:14.437Z,58.80
2019-02-28T18:35:43.682Z,58.70
